.
WxDataArchive / Data Records for 2006-02-13
2006-02-12 February 2006 2006-02-14

Data Records for Monday, 13 February 2006

Time	Temp	Chill	HIndex	Humid	Dewpt	 Wind 	HiWind	WindDir	Rain 	Barom 
-----	----	-----	------	-----	-----	------	------	-------	-----	----- 
00:00	24.5	24.5	24.5	85	20.6	1	5	270	0.00	30.002 
00:05	24.7	24.7	24.7	85	20.8	1	4	248	0.00	30.002 
00:10	24.8	24.8	24.8	85	20.9	2	5	248	0.00	30.002 
00:15	24.8	24.8	24.8	85	20.9	2	5	248	0.00	29.997 
00:20	24.8	24.8	24.8	85	20.9	2	5	248	0.00	29.997 
00:25	25.0	25.0	25.0	85	21.1	1	4	248	0.00	29.997 
00:30	25.0	25.0	25.0	85	21.1	1	3	248	0.00	29.994 
00:35	25.1	25.1	25.1	85	21.2	1	2	248	0.00	29.994 
00:40	25.3	25.3	25.3	85	21.4	2	4	248	0.00	29.994 
00:45	25.3	25.3	25.3	85	21.4	1	4	248	0.00	29.994 
00:50	25.3	25.3	25.3	84	21.2	2	5	248	0.00	29.994 
00:55	25.4	25.4	25.4	84	21.3	2	6	270	0.00	29.994 
01:00	25.4	25.4	25.4	85	21.5	1	4	248	0.00	29.994 
01:05	25.3	25.3	25.3	85	21.4	2	5	270	0.00	29.994 
01:10	25.3	25.3	25.3	85	21.4	1	4	248	0.00	29.994 
01:15	25.3	25.3	25.3	85	21.4	1	3	270	0.00	29.999 
01:20	25.3	25.3	25.3	86	21.7	2	4	270	0.00	29.999 
01:25	25.3	25.3	25.3	85	21.4	2	5	248	0.00	29.999 
01:30	25.3	25.3	25.3	86	21.7	1	4	248	0.00	30.001 
01:35	25.3	25.3	25.3	86	21.7	1	3	270	0.00	30.001 
01:40	25.3	25.3	25.3	86	21.7	1	3	248	0.00	30.001 
01:45	25.1	25.1	25.1	87	21.8	1	4	248	0.00	29.996 
01:50	25.0	25.0	25.0	87	21.7	1	2	270	0.00	29.996 
01:55	25.0	25.0	25.0	87	21.7	2	4	248	0.00	29.996 
02:00	25.0	25.0	25.0	87	21.7	1	3	248	0.00	29.999 
02:05	25.0	25.0	25.0	87	21.7	1	3	270	0.00	29.999 
02:10	25.0	25.0	25.0	87	21.7	1	2	270	0.00	29.999 
02:15	24.8	24.8	24.8	86	21.2	1	2	248	0.00	29.993 
02:20	25.0	25.0	25.0	86	21.4	1	3	270	0.00	29.993 
02:25	25.0	25.0	25.0	86	21.4	1	2	292	0.00	29.993 
02:30	25.0	25.0	25.0	87	21.7	1	4	292	0.00	29.993 
02:35	25.0	25.0	25.0	86	21.4	2	5	248	0.00	29.993 
02:40	25.0	25.0	25.0	87	21.7	1	4	248	0.00	29.993 
02:45	25.0	25.0	25.0	86	21.4	1	3	270	0.00	29.991 
02:50	25.0	25.0	25.0	86	21.4	1	3	270	0.00	29.991 
02:55	25.0	25.0	25.0	86	21.4	1	4	248	0.00	29.991 
03:00	25.0	25.0	25.0	84	20.9	2	7	270	0.00	29.989 
03:05	24.8	24.8	24.8	82	20.1	3	7	270	0.00	29.989 
03:10	24.5	24.5	24.5	81	19.5	2	3	270	0.00	29.989 
03:15	24.1	24.1	24.1	80	18.8	2	4	270	0.00	29.989 
03:20	23.6	23.6	23.6	80	18.4	1	2	270	0.00	29.989 
03:25	23.3	23.3	23.3	81	18.3	1	5	270	0.00	29.989 
03:30	22.9	22.9	22.9	82	18.2	1	3	248	0.00	29.990 
03:35	22.5	22.5	22.5	82	17.9	1	3	248	0.00	29.990 
03:40	22.2	22.2	22.2	83	17.8	2	5	248	0.00	29.990 
03:45	22.1	22.1	22.1	83	17.7	1	3	248	0.00	29.992 
03:50	21.9	21.9	21.9	83	17.5	1	5	248	0.00	29.992 
03:55	21.8	21.8	21.8	83	17.4	1	4	248	0.00	29.992 
04:00	21.4	21.4	21.4	82	16.8	1	4	248	0.00	29.991 
04:05	21.3	21.3	21.3	83	17.0	1	5	270	0.00	29.991 
04:10	21.1	21.1	21.1	83	16.8	1	3	248	0.00	29.991 
04:15	21.0	21.0	21.0	83	16.7	1	3	270	0.00	29.997 
04:20	20.8	20.8	20.8	84	16.7	1	3	248	0.00	29.997 
04:25	20.6	20.6	20.6	84	16.5	1	5	248	0.00	29.997 
04:30	20.5	20.5	20.5	84	16.4	1	4	248	0.00	29.998 
04:35	20.5	20.5	20.5	84	16.4	2	5	248	0.00	29.998 
04:40	20.3	20.3	20.3	84	16.3	1	3	248	0.00	29.998 
04:45	20.3	20.3	20.3	84	16.3	2	5	248	0.00	29.999 
04:50	20.2	20.2	20.2	83	15.9	2	5	248	0.00	29.999 
04:55	20.2	20.2	20.2	83	15.9	1	3	248	0.00	29.999 
05:00	20.0	20.0	20.0	83	15.7	1	3	248	0.00	30.000 
05:05	19.9	19.9	19.9	83	15.6	1	5	248	0.00	30.000 
05:10	19.9	19.9	19.9	83	15.6	2	4	248	0.00	30.000 
05:15	19.7	19.7	19.7	82	15.1	1	3	248	0.00	29.998 
05:20	19.5	19.5	19.5	82	14.9	1	3	248	0.00	29.998 
05:25	19.5	19.5	19.5	82	14.9	1	5	248	0.00	29.998 
05:30	19.4	19.4	19.4	82	14.8	1	3	248	0.00	29.999 
05:35	19.2	19.2	19.2	82	14.6	1	3	248	0.00	29.999 
05:40	19.2	19.2	19.2	81	14.3	1	3	248	0.00	29.999 
05:45	19.1	19.1	19.1	81	14.2	1	4	248	0.00	30.000 
05:50	18.9	18.9	18.9	81	14.1	1	2	248	0.00	30.000 
05:55	18.9	18.9	18.9	81	14.1	1	5	270	0.00	30.000 
06:00	18.8	18.8	18.8	81	14.0	1	4	248	0.00	29.997 
06:05	18.8	18.8	18.8	82	14.2	1	3	248	0.00	29.997 
06:10	18.8	18.8	18.8	82	14.2	1	3	248	0.00	29.997 
06:15	18.8	18.8	18.8	82	14.2	1	4	248	0.00	29.997 
06:20	18.8	18.8	18.8	82	14.2	2	5	248	0.00	29.997 
06:25	18.8	18.8	18.8	83	14.5	2	5	248	0.00	29.997 
06:30	18.8	18.8	18.8	83	14.5	2	5	248	0.00	29.998 
06:35	18.8	18.8	18.8	83	14.5	2	6	248	0.00	29.998 
06:40	18.8	18.8	18.8	84	14.8	2	5	248	0.00	29.998 
06:45	18.9	18.9	18.9	84	14.9	1	4	248	0.00	30.000 
06:50	19.1	19.1	19.1	84	15.1	2	4	248	0.00	30.000 
06:55	19.4	19.4	19.4	84	15.4	3	7	248	0.00	30.000 
07:00	19.5	19.5	19.5	84	15.5	2	6	248	0.00	29.999 
07:05	19.7	19.7	19.7	83	15.4	3	6	248	0.00	29.999 
07:10	19.9	19.9	19.9	83	15.6	2	7	248	0.00	29.999 
07:15	19.9	19.9	19.9	83	15.6	1	3	248	0.00	29.998 
07:20	19.9	19.9	19.9	82	15.3	2	7	248	0.00	29.998 
07:25	20.0	20.0	20.0	82	15.4	3	7	248	0.00	29.998 
07:30	20.0	20.0	20.0	82	15.4	3	8	248	0.00	30.000 
07:35	20.2	20.2	20.2	82	15.6	2	5	248	0.00	30.000 
07:40	20.2	20.2	20.2	82	15.6	2	5	248	0.00	30.000 
07:45	20.3	20.3	20.3	82	15.7	3	6	248	0.00	30.005 
07:50	20.5	20.5	20.5	82	15.9	2	6	248	0.00	30.005 
07:55	20.5	20.5	20.5	82	15.9	2	6	248	0.00	30.005 
08:00	20.6	20.6	20.6	82	16.0	2	7	248	0.00	29.998 
08:05	20.6	20.6	20.6	81	15.7	2	5	248	0.00	29.998 
08:10	20.8	20.8	20.8	81	15.9	2	7	248	0.00	29.998 
08:15	20.8	20.8	20.8	81	15.9	2	6	248	0.00	29.998 
08:20	21.0	21.0	21.0	80	15.8	3	9	248	0.00	29.998 
08:25	21.0	15.4	21.0	79	15.5	4	9	248	0.00	29.998 
08:30	21.1	15.5	21.1	77	15.0	4	11	270	0.00	29.998 
08:35	21.3	21.3	21.3	77	15.2	2	7	248	0.00	29.998 
08:40	21.4	21.4	21.4	77	15.3	2	5	270	0.00	29.998 
08:45	21.6	16.1	21.6	74	14.6	4	12	248	0.00	30.000 
08:50	21.8	21.8	21.8	75	15.1	3	7	248	0.00	30.000 
08:55	21.8	21.8	21.8	73	14.5	3	9	270	0.00	30.000 
09:00	21.9	16.4	21.9	72	14.3	4	13	270	0.00	29.997 
09:05	22.1	16.6	22.1	70	13.8	4	13	248	0.00	29.997 
09:10	22.2	16.8	22.2	69	13.6	4	9	248	0.00	29.997 
09:15	22.5	17.1	22.5	68	13.6	4	10	248	0.00	29.992 
09:20	22.9	17.6	22.9	66	13.3	4	11	270	0.00	29.992 
09:25	22.9	16.4	22.9	65	12.9	5	10	270	0.00	29.992 
09:30	23.2	17.9	23.2	65	13.2	4	10	248	0.00	29.989 
09:35	23.5	17.1	23.5	64	13.1	5	11	270	0.00	29.989 
09:40	23.6	17.2	23.6	65	13.6	5	13	248	0.00	29.989 
09:45	23.9	18.7	23.9	64	13.5	4	12	270	0.00	29.987 
09:50	24.1	17.8	24.1	65	14.1	5	13	270	0.00	29.987 
09:55	24.4	18.1	24.4	64	14.0	5	13	270	0.00	29.987 
10:00	24.1	16.8	24.1	64	13.7	6	13	248	0.00	29.976 
10:05	24.2	17.9	24.2	64	13.8	5	11	248	0.00	29.976 
10:10	24.2	16.9	24.2	63	13.4	6	15	248	0.00	29.976 
10:15	24.5	16.5	24.5	64	14.1	7	20	270	0.00	29.968 
10:20	24.7	17.5	24.7	63	13.9	6	12	270	0.00	29.968 
10:25	24.7	17.5	24.7	63	13.9	6	13	270	0.00	29.968 
10:30	24.5	17.3	24.5	62	13.4	6	11	270	0.00	29.971 
10:35	24.2	16.9	24.2	64	13.8	6	12	270	0.00	29.971 
10:40	24.2	17.9	24.2	63	13.4	5	11	248	0.00	29.971 
10:45	24.2	16.9	24.2	64	13.8	6	12	270	0.00	29.968 
10:50	24.2	16.1	24.2	64	13.8	7	15	270	0.00	29.968 
10:55	24.5	19.4	24.5	65	14.4	4	11	270	0.00	29.968 
11:00	24.8	19.8	24.8	64	14.4	4	12	270	0.00	29.967 
11:05	24.7	17.5	24.7	63	13.9	6	11	248	0.00	29.967 
11:10	24.8	17.7	24.8	62	13.7	6	13	248	0.00	29.967 
11:15	24.7	16.7	24.7	62	13.6	7	16	248	0.00	29.967 
11:20	24.8	18.6	24.8	63	14.0	5	11	270	0.00	29.967 
11:25	24.8	17.7	24.8	62	13.7	6	13	270	0.00	29.967 
11:30	24.7	16.0	24.7	62	13.6	8	19	270	0.00	29.963 
11:35	24.7	16.7	24.7	63	13.9	7	17	270	0.00	29.963 
11:40	24.7	16.7	24.7	64	14.3	7	15	270	0.00	29.963 
11:45	24.8	19.8	24.8	63	14.0	4	10	270	0.00	29.964 
11:50	25.0	17.9	25.0	64	14.6	6	12	270	0.00	29.964 
11:55	25.4	19.3	25.4	62	14.2	5	14	248	0.00	29.964 
12:00	25.4	18.4	25.4	61	13.9	6	14	270	0.00	29.963 
12:05	25.1	16.4	25.1	61	13.6	8	16	248	0.00	29.963 
12:10	25.3	18.3	25.3	62	14.1	6	13	270	0.00	29.963 
12:15	25.4	18.4	25.4	62	14.2	6	14	270	0.00	29.949 
12:20	25.6	17.8	25.6	62	14.4	7	17	270	0.00	29.949 
12:25	25.7	20.8	25.7	63	14.9	4	12	270	0.00	29.949 
12:30	25.6	17.1	25.6	61	14.0	8	16	270	0.00	29.949 
12:35	25.8	18.8	25.8	62	14.6	6	13	270	0.00	29.949 
12:40	25.8	19.8	25.8	62	14.6	5	11	270	0.00	29.949 
12:45	26.0	19.1	26.0	62	14.8	6	15	248	0.00	29.934 
12:50	26.1	20.1	26.1	62	14.9	5	13	248	0.00	29.934 
12:55	26.1	19.2	26.1	62	14.9	6	20	270	0.00	29.934 
13:00	26.3	20.4	26.3	62	15.1	5	11	248	0.00	29.930 
13:05	26.3	19.4	26.3	61	14.7	6	14	248	0.00	29.930 
13:10	26.3	19.4	26.3	63	15.4	6	14	248	0.00	29.930 
13:15	26.4	20.5	26.4	63	15.5	5	11	248	0.00	29.917 
13:20	26.6	20.7	26.6	64	16.1	5	11	270	0.00	29.917 
13:25	27.0	22.3	27.0	64	16.5	4	10	270	0.00	29.917 
13:30	27.2	21.4	27.2	62	15.9	5	14	270	0.00	29.913 
13:35	27.2	21.4	27.2	63	16.3	5	12	248	0.00	29.913 
13:40	27.5	20.9	27.5	62	16.2	6	16	248	0.00	29.913 
13:45	27.8	22.1	27.8	61	16.1	5	15	248	0.00	29.908 
13:50	27.9	22.3	27.9	61	16.2	5	12	270	0.00	29.908 
13:55	28.1	22.5	28.1	59	15.6	5	14	270	0.00	29.908 
14:00	28.2	22.6	28.2	60	16.1	5	13	248	0.00	29.894 
14:05	28.4	21.9	28.4	58	15.5	6	13	248	0.00	29.894 
14:10	28.1	20.8	28.1	58	15.3	7	14	248	0.00	29.894 
14:15	28.1	21.6	28.1	58	15.3	6	13	248	0.00	29.886 
14:20	28.1	21.6	28.1	60	16.0	6	15	248	0.00	29.886 
14:25	28.4	21.9	28.4	59	15.9	6	14	270	0.00	29.886 
14:30	29.0	23.6	29.0	59	16.5	5	9	270	0.00	29.880 
14:35	29.0	23.6	29.0	57	15.7	5	11	248	0.00	29.880 
14:40	29.0	23.6	29.0	58	16.1	5	18	270	0.00	29.880 
14:45	28.8	22.4	28.8	58	15.9	6	15	270	0.00	29.861 
14:50	29.1	23.7	29.1	60	17.0	5	11	248	0.00	29.861 
14:55	29.1	22.0	29.1	58	16.2	7	13	248	0.00	29.861 
15:00	28.8	23.3	28.8	60	16.7	5	16	248	0.00	29.848 
15:05	29.0	22.7	29.0	59	16.5	6	12	248	0.00	29.848 
15:10	28.7	23.2	28.7	61	17.0	5	15	248	0.00	29.848 
15:15	28.4	21.2	28.4	60	16.3	7	15	270	0.00	29.829 
15:20	28.4	21.9	28.4	61	16.7	6	19	248	0.00	29.829 
15:25	28.2	19.6	28.2	59	15.7	9	18	248	0.00	29.829 
15:30	28.2	20.2	28.2	58	15.3	8	17	248	0.00	29.820 
15:35	28.4	21.2	28.4	59	15.9	7	16	270	0.00	29.820 
15:40	28.7	21.5	28.7	58	15.8	7	18	270	0.00	29.820 
15:45	28.8	20.9	28.8	59	16.3	8	19	270	0.00	29.802 
15:50	29.0	21.9	29.0	60	16.9	7	15	248	0.00	29.802 
15:55	29.1	22.0	29.1	59	16.6	7	17	248	0.00	29.802 
16:00	29.4	23.1	29.4	60	17.3	6	12	270	0.00	29.804 
16:05	29.5	24.1	29.5	59	17.0	5	12	248	0.00	29.804 
16:10	29.8	23.6	29.8	60	17.6	6	15	248	0.00	29.804 
16:15	29.8	24.5	29.8	61	18.0	5	14	248	0.00	29.792 
16:20	29.8	23.6	29.8	60	17.6	6	16	248	0.00	29.792 
16:25	30.0	24.7	30.0	61	18.2	5	15	248	0.00	29.792 
16:30	29.8	22.2	29.8	59	17.2	8	17	248	0.00	29.780 
16:35	29.8	22.8	29.8	59	17.2	7	15	248	0.00	29.780 
16:40	29.8	21.6	29.8	58	16.8	9	18	248	0.00	29.780 
16:45	30.0	23.1	30.0	58	17.0	7	16	248	0.00	29.775 
16:50	30.1	23.2	30.1	57	16.7	7	16	248	0.00	29.775 
16:55	30.1	23.2	30.1	56	16.3	7	16	248	0.00	29.775 
17:00	30.3	24.2	30.3	57	16.9	6	15	248	0.00	29.775 
17:05	30.4	24.3	30.4	57	17.0	6	16	270	0.00	29.775 
17:10	30.6	23.1	30.6	57	17.2	8	22	270	0.00	29.775 
17:15	30.6	22.5	30.6	56	16.8	9	18	248	0.00	29.786 
17:20	30.7	23.9	30.7	57	17.3	7	16	248	0.00	29.786 
17:25	30.7	23.9	30.7	56	16.9	7	17	248	0.00	29.786 
17:30	30.7	25.5	30.7	56	16.9	5	16	248	0.00	29.796 
17:35	30.9	24.2	30.9	57	17.5	7	15	270	0.00	29.796 
17:40	30.9	24.2	30.9	56	17.1	7	16	270	0.00	29.796 
17:45	31.0	25.0	31.0	57	17.6	6	12	270	0.00	29.801 
17:50	31.0	24.3	31.0	57	17.6	7	13	270	0.00	29.801 
17:55	30.9	24.2	30.9	56	17.1	7	16	248	0.00	29.801 
18:00	30.9	24.2	30.9	56	17.1	7	15	270	0.00	29.804 
18:05	30.7	24.7	30.7	57	17.3	6	13	270	0.00	29.804 
18:10	30.7	24.7	30.7	57	17.3	6	18	248	0.00	29.804 
18:15	30.6	24.6	30.6	58	17.6	6	14	270	0.00	29.806 
18:20	30.6	24.6	30.6	58	17.6	6	14	248	0.00	29.806 
18:25	30.4	24.3	30.4	58	17.4	6	13	270	0.00	29.806 
18:30	30.4	24.3	30.4	59	17.8	6	14	270	0.00	29.806 
18:35	30.3	25.1	30.3	59	17.7	5	11	270	0.00	29.806 
18:40	30.4	25.2	30.4	59	17.8	5	14	270	0.00	29.806 
18:45	30.4	25.2	30.4	60	18.2	5	11	270	0.00	29.810 
18:50	30.6	25.4	30.6	60	18.4	5	14	248	0.00	29.810 
18:55	30.7	25.5	30.7	60	18.5	5	12	248	0.00	29.810 
19:00	30.7	25.5	30.7	60	18.5	5	12	248	0.00	29.825 
19:05	30.7	25.5	30.7	60	18.5	5	11	270	0.00	29.825 
19:10	30.7	25.5	30.7	60	18.5	5	14	270	0.00	29.825 
19:15	30.9	26.8	30.9	60	18.7	4	9	248	0.00	29.844 
19:20	30.9	26.8	30.9	61	19.1	4	10	248	0.00	29.844 
19:25	30.9	26.8	30.9	61	19.1	4	12	270	0.00	29.844 
19:30	30.9	26.8	30.9	60	18.7	4	9	248	0.00	29.858 
19:35	30.9	30.9	30.9	61	19.1	3	6	248	0.00	29.858 
19:40	30.9	25.8	30.9	61	19.1	5	13	270	0.00	29.858 
19:45	30.9	25.8	30.9	61	19.1	5	12	270	0.00	29.867 
19:50	30.9	26.8	30.9	61	19.1	4	10	270	0.00	29.867 
19:55	30.9	26.8	30.9	62	19.4	4	9	248	0.00	29.867 
20:00	30.9	26.8	30.9	62	19.4	4	10	248	0.00	29.868 
20:05	30.9	26.8	30.9	62	19.4	4	10	248	0.00	29.868 
20:10	30.9	26.8	30.9	63	19.8	4	11	248	0.00	29.868 
20:15	30.9	25.8	30.9	63	19.8	5	14	248	0.00	29.864 
20:20	30.9	26.8	30.9	63	19.8	4	9	270	0.00	29.864 
20:25	30.9	26.8	30.9	63	19.8	4	11	248	0.00	29.864 
20:30	30.9	30.9	30.9	64	20.2	3	6	248	0.00	29.863 
20:35	30.9	26.8	30.9	64	20.2	4	10	248	0.00	29.863 
20:40	30.9	25.8	30.9	64	20.2	5	17	248	0.00	29.863 
20:45	30.9	26.8	30.9	64	20.2	4	14	248	0.00	29.862 
20:50	30.9	30.9	30.9	64	20.2	3	9	248	0.00	29.862 
20:55	30.9	26.8	30.9	64	20.2	4	10	248	0.00	29.862 
21:00	30.9	26.8	30.9	64	20.2	4	9	248	0.00	29.859 
21:05	30.7	26.6	30.7	65	20.3	4	9	248	0.00	29.859 
21:10	30.7	30.7	30.7	65	20.3	3	7	248	0.00	29.859 
21:15	30.7	30.7	30.7	65	20.3	3	9	248	0.00	29.853 
21:20	30.7	26.6	30.7	66	20.7	4	11	248	0.00	29.853 
21:25	30.6	26.5	30.6	66	20.6	4	13	270	0.00	29.853 
21:30	30.6	26.5	30.6	66	20.6	4	7	248	0.00	29.857 
21:35	30.6	30.6	30.6	67	21.0	3	6	248	0.00	29.857 
21:40	30.6	26.5	30.6	67	21.0	4	7	248	0.00	29.857 
21:45	30.6	26.5	30.6	67	21.0	4	12	248	0.00	29.856 
21:50	30.6	26.5	30.6	67	21.0	4	9	248	0.00	29.856 
21:55	30.6	26.5	30.6	68	21.3	4	9	248	0.00	29.856 
22:00	30.6	26.5	30.6	68	21.3	4	7	248	0.00	29.862 
22:05	30.6	26.5	30.6	68	21.3	4	9	248	0.00	29.862 
22:10	30.6	26.5	30.6	68	21.3	4	9	248	0.00	29.862 
22:15	30.6	30.6	30.6	68	21.3	3	6	248	0.00	29.860 
22:20	30.6	26.5	30.6	68	21.3	4	10	248	0.00	29.860 
22:25	30.6	26.5	30.6	68	21.3	4	9	248	0.00	29.860 
22:30	30.4	26.2	30.4	68	21.1	4	9	248	0.00	29.850 
22:35	30.3	30.3	30.3	69	21.4	3	8	248	0.00	29.850 
22:40	30.3	30.3	30.3	69	21.4	3	7	248	0.00	29.850 
22:45	30.3	26.1	30.3	69	21.4	4	12	248	0.00	29.853 
22:50	30.1	25.9	30.1	69	21.2	4	12	248	0.00	29.853 
22:55	30.1	25.9	30.1	69	21.2	4	12	248	0.00	29.853 
23:00	30.1	25.9	30.1	69	21.2	4	11	248	0.00	29.850 
23:05	30.1	30.1	30.1	69	21.2	3	10	248	0.00	29.850 
23:10	30.0	25.8	30.0	69	21.1	4	10	248	0.00	29.850 
23:15	29.8	29.8	29.8	70	21.2	3	6	248	0.00	29.849 
23:20	29.7	29.7	29.7	70	21.1	3	7	248	0.00	29.849 
23:25	29.7	25.4	29.7	70	21.1	4	9	248	0.00	29.849 
23:30	29.5	29.5	29.5	70	20.9	3	7	248	0.00	29.838 
23:35	29.5	29.5	29.5	71	21.3	3	9	248	0.00	29.838 
23:40	29.5	25.2	29.5	71	21.3	4	10	248	0.00	29.838 
23:45	29.5	29.5	29.5	71	21.3	3	7	248	0.00	29.833 
23:50	29.5	25.2	29.5	71	21.3	4	7	248	0.00	29.833 
23:55	29.5	25.2	29.5	72	21.6	4	12	248	0.00	29.833 

CoCoRaHS
IN-AL-39
A2 Web Hosting
Creative Commons License
GoDaddy
Look for:

loaded 2017-12-11 06:50:33 • last modified 2010-11-18 10:43:29
Privacy PolicyDisclaimer
• wx.awcolley.com is powered by PmWiki v.2002016 •
• all content (unless otherwise noted) © 2017 A W Colley